Pride Of Kent — MQCJ2 — position and weather

sailwx.info

Track history (hours):
 
Tides and Currents Weather Stations Pressure Air Temp Water Temp Dewpoint Dewpoint Depression Visibility Wind Speed Wind Dir Waves Ship Positions

Pride Of Kent

Operator: P & O Ferries

Last reported at 2017-Jun-23 16:45 UTC. Time now 2017-Jun-23 17:23 UTC.
Position N 51°07' E 001°20'.

Length 180 m; draft 6 m.

Type: Passenger vessel. MMSI: 232009000.

Date/timePositionNaut miles runAvg speedWind from/ knotsBaromVisibWave heightAir tempDewpointWater temp
2017-Jun-23 16:45N 51°07' E 001°20'0 1.2
2017-Jun-23 16:30N 51°07' E 001°20'3 5.8
2017-Jun-23 16:00N 51°07' E 001°24'612.1
2017-Jun-23 15:30N 51°04' E 001°33'918.2
2017-Jun-23 15:00N 50°59' E 001°44'4 8.7
2017-Jun-23 14:30N 50°58' E 001°51'7 7.0
2017-Jun-23 13:27N 50°59' E 001°39'919.0
2017-Jun-23 13:00N 51°05' E 001°29'6 4.7
2017-Jun-23 11:43N 51°07' E 001°20'0 0.9
2017-Jun-23 11:29N 51°07' E 001°20'3 6.4
2017-Jun-23 11:00N 51°07' E 001°25'715.1
2017-Jun-23 10:31N 51°03' E 001°35'917.3
2017-Jun-23 10:01N 50°58' E 001°46'3 5.3
2017-Jun-23 09:26N 50°58' E 001°51'0 0.0
2017-Jun-23 08:59N 50°58' E 001°51'1 2.7
2017-Jun-23 08:30N 50°58' E 001°49'1119.0
2017-Jun-23 07:56N 50°60' E 001°32'819.4
2017-Jun-23 07:30N 51°06' E 001°23'2 1.9
2017-Jun-23 06:18N 51°07' E 001°20'3 9.3
2017-Jun-23 06:00N 51°07' E 001°24'917.6
2017-Jun-23 05:30N 51°03' E 001°37'816.4
2017-Jun-23 05:00N 50°58' E 001°48'2 4.1
2017-Jun-23 04:30N 50°58' E 001°51'0 0.0
2017-Jun-23 04:00N 50°58' E 001°51'1 2.3
2017-Jun-23 03:31N 50°58' E 001°49'816.2
2017-Jun-23 03:00N 51°01' E 001°37'918.2
2017-Jun-23 02:31N 51°06' E 001°25'3 6.7
2017-Jun-23 02:00N 51°07' E 001°20'0 0.3
2017-Jun-23 01:30N 51°07' E 001°20'815.4
2017-Jun-23 01:00N 51°07' E 001°32'1019.1
2017-Jun-23 00:31N 50°59' E 001°43'510.9
2017-Jun-23 00:01N 50°58' E 001°51'0 0.0
2017-Jun-22 23:30N 50°58' E 001°51'4 8.2
2017-Jun-22 23:00N 50°58' E 001°45'1020.0
2017-Jun-22 22:30N 51°03' E 001°31'813.3
2017-Jun-22 21:54N 51°07' E 001°20'0 0.0
2017-Jun-22 21:19N 51°07' E 001°20'2 5.3
2017-Jun-22 21:00N 51°07' E 001°23'816.7
2017-Jun-22 20:31N 51°03' E 001°34'917.8
2017-Jun-22 20:01N 50°58' E 001°46'3 6.5
2017-Jun-22 19:31N 50°58' E 001°51'0 0.0
2017-Jun-22 19:00N 50°58' E 001°51'612.5
2017-Jun-22 18:31N 50°58' E 001°41'917.8
2017-Jun-22 18:00N 51°01' E 001°28'8 5.1
2017-Jun-22 16:26N 51°07' E 001°20'410.1
2017-Jun-22 16:00N 51°06' E 001°27'1019.2
2017-Jun-22 15:31N 51°00' E 001°39'815.8
2017-Jun-22 15:00N 50°58' E 001°51'0 0.1
2017-Jun-22 14:30N 50°58' E 001°51'5 5.2
2017-Jun-22 13:30N 50°58' E 001°43'918.8
2017-Jun-22 13:00N 51°03' E 001°30'815.4
2017-Jun-22 12:30N 51°07' E 001°20'0 0.0
2017-Jun-22 11:52N 51°07' E 001°20'0 0.4
2017-Jun-22 11:30N 51°07' E 001°20'2 4.6
2017-Jun-22 11:00N 51°07' E 001°24'815.9
2017-Jun-22 10:30N 51°04' E 001°35'917.9
2017-Jun-22 10:00N 50°58' E 001°46'3 5.2
2017-Jun-22 09:23N 50°58' E 001°51'0 0.0
2017-Jun-22 08:53N 50°58' E 001°51'1 1.8
2017-Jun-22 08:30N 50°58' E 001°50'1019.5
2017-Jun-22 08:01N 51°00' E 001°35'1019.3
2017-Jun-22 07:31N 51°06' E 001°23'2 4.4
2017-Jun-22 07:00N 51°07' E 001°20'0 0.0
2017-Jun-22 06:30N 51°07' E 001°20'1 2.5
2017-Jun-22 06:00N 51°07' E 001°22'918.2
2017-Jun-22 05:30N 51°03' E 001°35'917.7
2017-Jun-22 05:00N 50°58' E 001°47'3 5.5
2017-Jun-22 04:30N 50°58' E 001°51'0 0.0
2017-Jun-22 04:00N 50°58' E 001°51'2 3.3
2017-Jun-22 03:31N 50°58' E 001°48'816.1
2017-Jun-22 03:00N 51°01' E 001°36'917.8
2017-Jun-22 02:31N 51°06' E 001°25'3 6.3
2017-Jun-22 02:00N 51°07' E 001°20'0 0.0
2017-Jun-22 01:30N 51°07' E 001°20'0 0.0
2017-Jun-22 01:00N 51°07' E 001°20'4 8.4
2017-Jun-22 00:30N 51°06' E 001°26'917.3
2017-Jun-22 00:00N 51°01' E 001°38'815.6
2017-Jun-21 23:30N 50°58' E 001°49'1 2.1
2017-Jun-21 23:00N 50°58' E 001°51'0 0.0
2017-Jun-21 22:30N 50°58' E 001°51'612.0
2017-Jun-21 22:00N 50°58' E 001°42'917.9
2017-Jun-21 21:30N 51°03' E 001°29'714.9
2017-Jun-21 21:00N 51°07' E 001°20'0 0.0
2017-Jun-21 20:29N 51°07' E 001°20'0 0.1
2017-Jun-21 20:00N 51°07' E 001°20'611.6
2017-Jun-21 19:31N 51°06' E 001°29'1019.1
2017-Jun-21 19:00N 51°00' E 001°41'713.0
2017-Jun-21 18:30N 50°58' E 001°51'0 0.0
2017-Jun-21 18:00N 50°58' E 001°51'2 4.9
2017-Jun-21 17:31N 50°58' E 001°47'917.0
2017-Jun-21 17:01N 51°01' E 001°34'918.6
2017-Jun-21 16:30N 51°06' E 001°22'2 3.2
2017-Jun-21 15:57N 51°07' E 001°20'0 0.0
2017-Jun-21 15:29N 51°07' E 001°20'612.0
2017-Jun-21 15:00N 51°06' E 001°29'1615.9
2017-Jun-21 14:00N 50°58' E 001°51'0 0.0
2017-Jun-21 13:30N 50°58' E 001°51'2 5.0
2017-Jun-21 13:01N 50°58' E 001°47'917.8
2017-Jun-21 12:30N 51°01' E 001°34'1019.3
2017-Jun-21 12:00N 51°07' E 001°21'1 1.2
2017-Jun-21 11:19N 51°07' E 001°20'0 0.2
2017-Jun-21 11:00N 51°07' E 001°20'714.7
2017-Jun-21 10:30N 51°05' E 001°31'918.7
2017-Jun-21 10:00N 50°59' E 001°43'510.8
2017-Jun-21 09:30N 50°58' E 001°51'0 0.0
2017-Jun-21 09:00N 50°58' E 001°51'3 6.0
2017-Jun-21 08:30N 50°58' E 001°46'1019.2
2017-Jun-21 08:00N 51°02' E 001°32'816.9
2017-Jun-21 07:31N 51°07' E 001°22'1 2.0
2017-Jun-21 07:00N 51°07' E 001°20'0 0.0
2017-Jun-21 06:31N 51°07' E 001°20'611.5
2017-Jun-21 06:00N 51°06' E 001°29'816.3
2017-Jun-21 05:30N 51°01' E 001°39'815.8
2017-Jun-21 05:01N 50°58' E 001°51'1 1.4
2017-Jun-21 04:30N 50°58' E 001°52'0 0.0
2017-Jun-21 04:01N 50°58' E 001°52'3 6.2
2017-Jun-21 03:31N 50°58' E 001°47'815.7
2017-Jun-21 03:00N 51°01' E 001°35'816.9
2017-Jun-21 02:31N 51°06' E 001°24'3 5.3
2017-Jun-21 01:56N 51°07' E 001°20'0 0.0
2017-Jun-21 01:15N 51°07' E 001°20'0 0.5
2017-Jun-21 01:00N 51°07' E 001°20'815.9
2017-Jun-21 00:31N 51°04' E 001°31'917.3
2017-Jun-21 00:01N 50°59' E 001°43'611.5
2017-Jun-20 23:30N 50°58' E 001°52'0 0.0
2017-Jun-20 23:00N 50°58' E 001°52'0 0.0
2017-Jun-20 22:31N 50°58' E 001°52'713.3
2017-Jun-20 22:01N 50°58' E 001°41'1019.4
2017-Jun-20 21:30N 51°03' E 001°28'611.5
2017-Jun-20 20:57N 51°07' E 001°20'0 0.0
2017-Jun-20 20:27N 51°07' E 001°20'0 0.0
2017-Jun-20 20:00N 51°07' E 001°20'0 0.5
2017-Jun-20 19:30N 51°07' E 001°20'0 0.9
2017-Jun-20 18:56N 51°08' E 001°20'0 0.0
2017-Jun-20 18:30N 51°08' E 001°20'0 0.0
2017-Jun-20 18:01N 51°08' E 001°20'0 0.0
2017-Jun-20 17:31N 51°08' E 001°20'0 0.0
2017-Jun-20 17:01N 51°08' E 001°20'0 0.0
2017-Jun-20 16:31N 51°08' E 001°20'0 0.0
2017-Jun-20 16:01N 51°08' E 001°20'0 0.0
2017-Jun-20 15:31N 51°08' E 001°20'0 0.0
2017-Jun-20 15:00N 51°08' E 001°20'0 0.0
2017-Jun-20 14:31N 51°08' E 001°20'0 0.0
2017-Jun-20 13:30N 51°08' E 001°20'0 0.0
2017-Jun-20 13:00N 51°08' E 001°20'0 0.0
2017-Jun-20 12:29N 51°08' E 001°20'0 0.0
2017-Jun-20 12:00N 51°08' E 001°20'0 0.7
2017-Jun-20 11:29N 51°07' E 001°20'715.1
2017-Jun-20 11:00N 51°04' E 001°31'1019.1
2017-Jun-20 10:31N 50°59' E 001°44'510.4
2017-Jun-20 10:00N 50°58' E 001°52'0 0.0
2017-Jun-20 09:31N 50°58' E 001°52'0 0.0
2017-Jun-20 09:01N 50°58' E 001°52'3 5.2
2017-Jun-20 08:30N 50°58' E 001°48'1019.4
2017-Jun-20 08:00N 51°01' E 001°33'1019.3
2017-Jun-20 07:30N 51°07' E 001°21'0 0.7
2017-Jun-20 06:51N 51°07' E 001°20'0 0.0
2017-Jun-20 06:30N 51°07' E 001°20'3 6.5
2017-Jun-20 06:00N 51°06' E 001°25'917.4
2017-Jun-20 05:30N 51°02' E 001°37'816.7
2017-Jun-20 05:00N 50°58' E 001°49'1 2.9
2017-Jun-20 04:30N 50°58' E 001°51'0 0.0
2017-Jun-20 04:00N 50°58' E 001°51'5 9.7
2017-Jun-20 03:31N 50°58' E 001°43'815.8
2017-Jun-20 03:00N 50°58' E 001°31'918.2
2017-Jun-20 02:30N 51°06' E 001°23'3 4.8
2017-Jun-20 01:59N 51°07' E 001°20'0 0.0
2017-Jun-20 01:30N 51°07' E 001°20'0 0.0
2017-Jun-20 01:00N 51°07' E 001°20'510.4
2017-Jun-20 00:30N 51°06' E 001°28'1019.4
2017-Jun-20 00:00N 51°00' E 001°40'714.0
2017-Jun-19 23:30N 50°58' E 001°51'0 0.0
2017-Jun-19 23:00N 50°58' E 001°51'1 2.3
2017-Jun-19 22:31N 50°58' E 001°49'918.7
2017-Jun-19 22:00N 50°60' E 001°35'919.0
2017-Jun-19 21:31N 51°06' E 001°24'3 4.0
2017-Jun-19 20:53N 51°07' E 001°20'0 0.0
2017-Jun-19 20:30N 51°07' E 001°20'611.8
2017-Jun-19 20:00N 51°06' E 001°29'918.5
2017-Jun-19 19:30N 51°00' E 001°40'714.0
2017-Jun-19 19:00N 50°58' E 001°51'0 0.3
2017-Jun-19 18:30N 50°58' E 001°51'0 0.9
2017-Jun-19 18:01N 50°58' E 001°50'918.1
2017-Jun-19 17:31N 51°01' E 001°37'1019.3
2017-Jun-19 17:01N 51°06' E 001°24'3 5.0
2017-Jun-19 16:28N 51°07' E 001°20'0 0.0
2017-Jun-19 15:58N 51°07' E 001°20'612.8
2017-Jun-19 15:30N 51°06' E 001°29'817.0
2017-Jun-19 15:00N 51°00' E 001°39'8 8.0
2017-Jun-19 14:00N 50°58' E 001°51'0 0.0
2017-Jun-19 13:30N 50°58' E 001°51'612.5
2017-Jun-19 13:00N 50°58' E 001°41'918.3
2017-Jun-19 12:31N 51°02' E 001°28'714.2
2017-Jun-19 12:00N 51°07' E 001°20'0 0.1
2017-Jun-19 11:08N 51°07' E 001°20'0 0.9
2017-Jun-19 11:00N 51°07' E 001°20'917.8
2017-Jun-19 10:30N 51°05' E 001°34'918.9
2017-Jun-19 10:00N 50°58' E 001°44'4 8.5
2017-Jun-19 09:30N 50°58' E 001°51'0 0.0
2017-Jun-19 09:00N 50°58' E 001°51'3 6.3
2017-Jun-19 08:30N 50°58' E 001°46'917.7
2017-Jun-19 08:00N 51°01' E 001°33'817.2
2017-Jun-19 07:30N 51°07' E 001°22'2 2.8
2017-Jun-19 06:58N 51°07' E 001°20'0 0.1
2017-Jun-19 06:21N 51°07' E 001°20'310.1
2017-Jun-19 06:00N 51°06' E 001°25'917.1
2017-Jun-19 05:30N 51°02' E 001°37'815.5
2017-Jun-19 05:00N 50°58' E 001°48'2 4.1
2017-Jun-19 04:31N 50°58' E 001°51'0 0.0
2017-Jun-19 04:01N 50°58' E 001°51'5 9.5
2017-Jun-19 03:31N 50°58' E 001°43'816.6
2017-Jun-19 03:00N 51°02' E 001°32'714.0
2017-Jun-19 02:30N 51°06' E 001°23'2 4.4
2017-Jun-19 02:00N 51°07' E 001°20'0 0.0
2017-Jun-19 01:27N 51°07' E 001°20'0 0.0
2017-Jun-19 00:59N 51°07' E 001°20'613.1
2017-Jun-19 00:30N 51°06' E 001°30'917.6
2017-Jun-19 00:01N 51°01' E 001°41'713.4
2017-Jun-18 23:30N 50°58' E 001°51'0 0.2
2017-Jun-18 23:01N 50°58' E 001°51'0 0.2
2017-Jun-18 22:31N 50°58' E 001°51'714.6
2017-Jun-18 22:00N 50°59' E 001°39'917.4
2017-Jun-18 21:30N 51°03' E 001°27'611.0
2017-Jun-18 20:56N 51°07' E 001°20'0 0.0
2017-Jun-18 20:10N 51°07' E 001°20'0 0.0
2017-Jun-18 19:57N 51°07' E 001°20'511.7
2017-Jun-18 19:30N 51°06' E 001°28'1019.1
2017-Jun-18 19:00N 51°00' E 001°40'714.2
2017-Jun-18 18:31N 50°58' E 001°51'0 0.0
2017-Jun-18 17:42N 50°58' E 001°51'211.5
2017-Jun-18 17:30N 50°58' E 001°47'1019.4
2017-Jun-18 16:59N 50°59' E 001°31'919.5
2017-Jun-18 16:30N 51°06' E 001°22'2 1.9
2017-Jun-18 15:38N 51°07' E 001°20'0 0.9
2017-Jun-18 15:30N 51°07' E 001°20'918.1
2017-Jun-18 15:01N 51°03' E 001°33'1212.4
2017-Jun-18 14:00N 50°58' E 001°51'0 0.0
2017-Jun-18 13:30N 50°58' E 001°51'4 8.0
2017-Jun-18 13:01N 50°58' E 001°45'918.3
2017-Jun-18 12:30N 51°02' E 001°32'918.0
2017-Jun-18 12:00N 51°07' E 001°20'0 0.2
2017-Jun-18 11:19N 51°07' E 001°20'311.0
2017-Jun-18 11:00N 51°07' E 001°26'1019.0
2017-Jun-18 10:30N 51°01' E 001°38'917.2
2017-Jun-18 10:00N 50°58' E 001°51'0 0.5
2017-Jun-18 09:30N 50°58' E 001°51'0 0.8
2017-Jun-18 09:01N 50°58' E 001°50'713.8
2017-Jun-18 08:30N 50°59' E 001°40'1020.1
2017-Jun-18 08:00N 51°04' E 001°26'5 7.5
2017-Jun-18 07:21N 51°07' E 001°20'0 0.0
2017-Jun-18 06:59N 51°07' E 001°20'0 0.0
2017-Jun-18 06:30N 51°07' E 001°20'1 1.7
2017-Jun-18 06:00N 51°07' E 001°21'918.6
2017-Jun-18 05:30N 51°02' E 001°34'918.0
2017-Jun-18 05:01N 50°58' E 001°46'3 6.0
2017-Jun-18 04:30N 50°58' E 001°51'0 0.0
2017-Jun-18 04:00N 50°58' E 001°51'1 1.6
2017-Jun-18 03:31N 50°58' E 001°50'918.4
2017-Jun-18 03:01N 51°01' E 001°36'1019.5
2017-Jun-18 02:30N 51°06' E 001°23'2 3.9
2017-Jun-18 01:57N 51°07' E 001°20'0 0.0
2017-Jun-18 01:25N 51°07' E 001°20'0 0.1
2017-Jun-18 01:00N 51°07' E 001°20'713.4
2017-Jun-18 00:31N 51°05' E 001°30'917.4
2017-Jun-18 00:00N 50°59' E 001°40'713.9
2017-Jun-17 23:30N 50°58' E 001°51'0 0.1
2017-Jun-17 23:00N 50°58' E 001°51'3 5.3
2017-Jun-17 22:31N 50°58' E 001°47'917.7
2017-Jun-17 22:00N 51°01' E 001°34'918.4
2017-Jun-17 21:31N 51°07' E 001°22'1 2.0
2017-Jun-17 20:50N 51°07' E 001°20'0 1.1
2017-Jun-17 20:30N 51°07' E 001°21'917.8
2017-Jun-17 20:01N 51°03' E 001°33'1019.0
2017-Jun-17 19:30N 50°58' E 001°46'3 6.8
2017-Jun-17 19:00N 50°58' E 001°51'0 0.0
2017-Jun-17 18:30N 50°58' E 001°51'714.0
2017-Jun-17 18:00N 50°59' E 001°40'918.5
2017-Jun-17 17:31N 51°04' E 001°28'6 9.1
2017-Jun-17 16:50N 51°07' E 001°20'0 0.1
2017-Jun-17 16:19N 51°07' E 001°20'310.4
2017-Jun-17 16:00N 51°07' E 001°25'917.9
2017-Jun-17 15:30N 51°02' E 001°37'817.0
2017-Jun-17 15:00N 50°58' E 001°49'1 2.2
2017-Jun-17 14:30N 50°58' E 001°51'3 2.9
2017-Jun-17 13:30N 50°58' E 001°46'917.2
2017-Jun-17 13:00N 51°01' E 001°33'918.5
2017-Jun-17 12:30N 51°07' E 001°22'1 1.9
2017-Jun-17 11:48N 51°07' E 001°20'0 0.1
2017-Jun-17 11:26N 51°07' E 001°20'512.8
2017-Jun-17 11:01N 51°06' E 001°28'714.0
2017-Jun-17 10:30N 51°01' E 001°36'918.5
2017-Jun-17 10:00N 50°58' E 001°50'0 0.9
2017-Jun-17 09:30N 50°58' E 001°51'0 0.0
2017-Jun-17 09:00N 50°58' E 001°51'611.7
2017-Jun-17 08:30N 50°58' E 001°42'1019.2
2017-Jun-17 08:00N 51°03' E 001°28'7 4.8
2017-Jun-17 06:33N 51°07' E 001°20'0 1.4
2017-Jun-17 06:30N 51°07' E 001°20'715.2
2017-Jun-17 06:00N 51°04' E 001°31'917.9
2017-Jun-17 05:30N 50°59' E 001°43'510.9
2017-Jun-17 05:00N 50°58' E 001°51'0 0.7
2017-Jun-17 04:30N 50°58' E 001°52'0 0.0
2017-Jun-17 04:00N 50°58' E 001°52'1 1.9
2017-Jun-17 03:30N 50°58' E 001°50'918.2
2017-Jun-17 03:00N 51°00' E 001°36'917.3
2017-Jun-17 02:30N 51°06' E 001°25'4 5.3
2017-Jun-17 01:48N 51°07' E 001°20'0 0.0
2017-Jun-17 01:30N 51°07' E 001°20'1 2.3
2017-Jun-17 01:00N 51°07' E 001°22'917.3
2017-Jun-17 00:31N 51°03' E 001°34'918.6
2017-Jun-17 00:00N 50°58' E 001°46'3 6.9
2017-Jun-16 23:30N 50°58' E 001°52'0 0.0
2017-Jun-16 23:00N 50°58' E 001°52'1 3.0
2017-Jun-16 22:30N 50°58' E 001°49'815.8
2017-Jun-16 22:00N 51°00' E 001°37'917.8
2017-Jun-16 21:30N 51°05' E 001°25'4 8.0
2017-Jun-16 21:00N 51°07' E 001°20'0 0.0
2017-Jun-16 20:27N 51°07' E 001°20'1 1.8
2017-Jun-16 20:00N 51°07' E 001°21'917.4
2017-Jun-16 19:30N 51°03' E 001°33'918.2
2017-Jun-16 19:01N 50°58' E 001°45'4 7.0
2017-Jun-16 18:30N 50°58' E 001°51'0 0.0
2017-Jun-16 18:01N 50°58' E 001°51'713.9
2017-Jun-16 17:30N 50°58' E 001°40'1019.2
2017-Jun-16 17:00N 51°04' E 001°27'610.1
2017-Jun-16 16:26N 51°07' E 001°20'0 0.0
2017-Jun-16 15:57N 51°07' E 001°20'1 3.0
2017-Jun-16 15:31N 51°07' E 001°22'918.5
2017-Jun-16 15:00N 51°02' E 001°35'1111.1
2017-Jun-16 14:00N 50°58' E 001°51'0 0.2
2017-Jun-16 13:30N 50°58' E 001°51'816.5
2017-Jun-16 13:00N 50°59' E 001°38'918.5
2017-Jun-16 12:30N 51°05' E 001°27'5 9.0
2017-Jun-16 11:58N 51°07' E 001°20'0 0.0
2017-Jun-16 11:28N 51°07' E 001°20'3 6.2
2017-Jun-16 11:00N 51°07' E 001°24'1019.0
2017-Jun-16 10:30N 51°01' E 001°37'918.1
2017-Jun-16 10:00N 50°58' E 001°50'0 0.8
2017-Jun-16 09:30N 50°58' E 001°51'0 0.6
2017-Jun-16 09:01N 50°58' E 001°51'816.3
2017-Jun-16 08:30N 50°59' E 001°38'1019.2
2017-Jun-16 08:01N 51°05' E 001°25'4 3.3
2017-Jun-16 06:45N 51°07' E 001°20'1 4.2
2017-Jun-16 06:30N 51°07' E 001°22'918.1
2017-Jun-16 06:01N 51°03' E 001°34'917.9
2017-Jun-16 05:31N 50°58' E 001°46'3 5.5
2017-Jun-16 04:59N 50°58' E 001°51'0 0.0
2017-Jun-16 04:30N 50°58' E 001°51'611.4
2017-Jun-16 04:00N 50°58' E 001°42'919.1
2017-Jun-16 03:30N 51°04' E 001°30'5 9.0
2017-Jun-16 03:00N 51°06' E 001°24'3 4.2
2017-Jun-16 02:25N 51°07' E 001°20'0 0.0
2017-Jun-16 01:48N 51°07' E 001°20'2 7.1
2017-Jun-16 01:31N 51°07' E 001°23'918.1
2017-Jun-16 01:01N 51°02' E 001°35'917.6
2017-Jun-16 00:31N 50°58' E 001°48'2 3.7
2017-Jun-16 00:00N 50°58' E 001°51'0 0.0
2017-Jun-15 23:31N 50°58' E 001°51'3 6.3
2017-Jun-15 23:00N 50°58' E 001°46'917.5
2017-Jun-15 22:30N 51°01' E 001°33'918.5
2017-Jun-15 22:00N 51°06' E 001°21'2 2.9
2017-Jun-15 21:29N 51°07' E 001°20'0 0.0
2017-Jun-15 20:57N 51°07' E 001°20'4 9.4
2017-Jun-15 20:31N 51°06' E 001°26'918.2
2017-Jun-15 20:01N 51°01' E 001°38'816.7
2017-Jun-15 19:30N 50°58' E 001°51'0 0.7
2017-Jun-15 19:00N 50°58' E 001°51'0 0.3
2017-Jun-15 18:30N 50°58' E 001°51'815.7
2017-Jun-15 18:00N 50°59' E 001°38'917.1
2017-Jun-15 17:30N 51°05' E 001°29'611.2
2017-Jun-15 16:56N 51°07' E 001°20'0 0.0
2017-Jun-15 16:25N 51°07' E 001°20'0 0.2
2017-Jun-15 16:00N 51°07' E 001°20'714.9
2017-Jun-15 15:30N 51°04' E 001°31'917.3
2017-Jun-15 15:00N 50°59' E 001°42'6 5.4
2017-Jun-15 13:58N 50°58' E 001°51'1 1.5
2017-Jun-15 13:30N 50°58' E 001°50'919.0
2017-Jun-15 13:00N 51°00' E 001°35'1019.0
2017-Jun-15 12:30N 51°06' E 001°23'2 4.6
2017-Jun-15 12:00N 51°07' E 001°20'0 0.0
2017-Jun-15 11:30N 51°07' E 001°20'1 2.5
2017-Jun-15 11:00N 51°07' E 001°22'1019.1
2017-Jun-15 10:30N 51°02' E 001°35'918.5
2017-Jun-15 10:00N 50°58' E 001°48'2 3.4
2017-Jun-15 09:30N 50°58' E 001°51'0 0.0
2017-Jun-15 09:00N 50°58' E 001°51'3 6.8
2017-Jun-15 08:30N 50°58' E 001°46'918.3
2017-Jun-15 08:00N 51°02' E 001°33'914.0
2017-Jun-15 07:20N 51°07' E 001°20'0 0.0
2017-Jun-15 07:01N 51°07' E 001°20'0 0.0
2017-Jun-15 06:23N 51°07' E 001°20'4 9.7
2017-Jun-15 06:01N 51°06' E 001°26'917.1
2017-Jun-15 05:30N 51°02' E 001°37'815.7
2017-Jun-15 05:00N 50°58' E 001°48'2 3.3
2017-Jun-15 04:30N 50°58' E 001°51'0 0.0
2017-Jun-15 04:00N 50°58' E 001°51'5 9.3
2017-Jun-15 03:31N 50°58' E 001°44'917.9
2017-Jun-15 03:00N 51°01' E 001°30'816.6
2017-Jun-15 02:30N 51°07' E 001°21'1 1.3
2017-Jun-15 01:58N 51°07' E 001°20'0 0.0
2017-Jun-15 01:29N 51°07' E 001°20'612.4
2017-Jun-15 01:00N 51°05' E 001°29'1019.0
2017-Jun-15 00:30N 50°60' E 001°41'612.6
2017-Jun-15 00:00N 50°58' E 001°51'0 0.0
2017-Jun-14 23:30N 50°58' E 001°51'1 1.3
2017-Jun-14 23:01N 50°58' E 001°50'816.5
2017-Jun-14 22:30N 51°00' E 001°37'918.1
2017-Jun-14 22:00N 51°05' E 001°25'4 7.7
2017-Jun-14 21:30N 51°07' E 001°20'0 0.0
2017-Jun-14 20:50N 51°07' E 001°20'0 0.7
2017-Jun-14 20:30N 51°07' E 001°20'612.8
2017-Jun-14 20:00N 51°07' E 001°30'918.2
2017-Jun-14 19:30N 51°00' E 001°40'714.1
2017-Jun-14 19:01N 50°58' E 001°51'0 0.0
2017-Jun-14 18:30N 50°58' E 001°51'2 3.0
2017-Jun-14 18:00N 50°58' E 001°49'917.7
2017-Jun-14 17:30N 50°60' E 001°35'918.9
2017-Jun-14 17:00N 51°06' E 001°24'3 3.3
2017-Jun-14 16:15N 51°07' E 001°20'0 0.0
2017-Jun-14 15:47N 51°07' E 001°20'2 7.5
2017-Jun-14 15:30N 51°07' E 001°23'918.1
2017-Jun-14 15:01N 51°02' E 001°36'1110.6
2017-Jun-14 14:00N 50°58' E 001°51'0 0.0
2017-Jun-14 13:30N 50°58' E 001°51'5 9.4
2017-Jun-14 13:01N 50°58' E 001°44'1019.0
2017-Jun-14 12:30N 51°03' E 001°30'814.3
2017-Jun-14 11:57N 51°07' E 001°20'0 0.0
2017-Jun-14 11:10N 51°07' E 001°20'0 0.6
2017-Jun-14 10:59N 51°07' E 001°20'816.7
2017-Jun-14 10:30N 51°04' E 001°32'1019.2
2017-Jun-14 10:00N 50°58' E 001°44'4 9.0
2017-Jun-14 09:30N 50°58' E 001°51'0 0.0
2017-Jun-14 09:00N 50°58' E 001°51'4 7.4
2017-Jun-14 08:30N 50°58' E 001°45'817.0
2017-Jun-14 08:00N 51°01' E 001°33'918.0
2017-Jun-14 07:30N 51°07' E 001°22'1 2.4
2017-Jun-14 07:00N 51°07' E 001°20'0 0.0
2017-Jun-14 06:29N 51°07' E 001°20'4 8.8
2017-Jun-14 06:00N 51°07' E 001°27'816.2
2017-Jun-14 05:30N 51°03' E 001°38'816.0
2017-Jun-14 05:00N 50°58' E 001°48'2 3.3
2017-Jun-14 04:30N 50°58' E 001°51'0 0.0
2017-Jun-14 04:00N 50°58' E 001°51'1 2.2
2017-Jun-14 03:30N 50°58' E 001°49'918.1
2017-Jun-14 03:01N 51°01' E 001°35'917.4
2017-Jun-14 02:31N 51°06' E 001°24'3 3.2
2017-Jun-14 01:32N 51°07' E 001°20'0 0.0
2017-Jun-14 01:27N 51°07' E 001°20'3 5.8
2017-Jun-14 01:01N 51°07' E 001°24'918.4
2017-Jun-14 00:30N 51°03' E 001°37'816.8
2017-Jun-14 00:00N 50°58' E 001°48'2 3.2
2017-Jun-13 23:30N 50°58' E 001°51'0 0.0
2017-Jun-13 23:00N 50°58' E 001°51'611.7
2017-Jun-13 22:31N 50°58' E 001°42'816.8
2017-Jun-13 22:00N 51°02' E 001°30'816.2
2017-Jun-13 21:29N 51°07' E 001°20'0 0.0
2017-Jun-13 20:55N 51°07' E 001°20'0 0.1
2017-Jun-13 20:30N 51°07' E 001°20'714.5
2017-Jun-13 20:00N 51°07' E 001°31'918.0
2017-Jun-13 19:30N 51°00' E 001°41'612.8
2017-Jun-13 19:00N 50°58' E 001°51'0 0.1
2017-Jun-13 18:30N 50°58' E 001°51'1 2.0
2017-Jun-13 18:00N 50°58' E 001°50'917.7
2017-Jun-13 17:31N 50°60' E 001°36'918.8
2017-Jun-13 17:00N 51°06' E 001°25'  
Track history (hours):
 
Tides and Currents Weather Stations Pressure Air Temp Water Temp Dewpoint Dewpoint Depression Visibility Wind Speed Wind Dir Waves Ship Positions

Pride Of Kent

Operator: P & O Ferries

Last reported at 2017-Jun-23 16:45 UTC. Time now 2017-Jun-23 17:23 UTC.
Position N 51°07' E 001°20'.

Length 180 m; draft 6 m.

Type: Passenger vessel. MMSI: 232009000.

Date/timePositionNaut miles runAvg speedWind from/ knotsBaromVisibWave heightAir tempDewpointWater temp
2017-Jun-23 16:45N 51°07' E 001°20'0 1.2
2017-Jun-23 16:30N 51°07' E 001°20'3 5.8
2017-Jun-23 16:00N 51°07' E 001°24'612.1
2017-Jun-23 15:30N 51°04' E 001°33'918.2
2017-Jun-23 15:00N 50°59' E 001°44'4 8.7
2017-Jun-23 14:30N 50°58' E 001°51'7 7.0
2017-Jun-23 13:27N 50°59' E 001°39'919.0
2017-Jun-23 13:00N 51°05' E 001°29'6 4.7
2017-Jun-23 11:43N 51°07' E 001°20'0 0.9
2017-Jun-23 11:29N 51°07' E 001°20'3 6.4
2017-Jun-23 11:00N 51°07' E 001°25'715.1
2017-Jun-23 10:31N 51°03' E 001°35'917.3
2017-Jun-23 10:01N 50°58' E 001°46'3 5.3
2017-Jun-23 09:26N 50°58' E 001°51'0 0.0
2017-Jun-23 08:59N 50°58' E 001°51'1 2.7
2017-Jun-23 08:30N 50°58' E 001°49'1119.0
2017-Jun-23 07:56N 50°60' E 001°32'819.4
2017-Jun-23 07:30N 51°06' E 001°23'2 1.9
2017-Jun-23 06:18N 51°07' E 001°20'3 9.3
2017-Jun-23 06:00N 51°07' E 001°24'917.6
2017-Jun-23 05:30N 51°03' E 001°37'816.4
2017-Jun-23 05:00N 50°58' E 001°48'2 4.1
2017-Jun-23 04:30N 50°58' E 001°51'0 0.0
2017-Jun-23 04:00N 50°58' E 001°51'1 2.3
2017-Jun-23 03:31N 50°58' E 001°49'816.2
2017-Jun-23 03:00N 51°01' E 001°37'918.2
2017-Jun-23 02:31N 51°06' E 001°25'3 6.7
2017-Jun-23 02:00N 51°07' E 001°20'0 0.3
2017-Jun-23 01:30N 51°07' E 001°20'815.4
2017-Jun-23 01:00N 51°07' E 001°32'1019.1
2017-Jun-23 00:31N 50°59' E 001°43'510.9
2017-Jun-23 00:01N 50°58' E 001°51'0 0.0
2017-Jun-22 23:30N 50°58' E 001°51'4 8.2
2017-Jun-22 23:00N 50°58' E 001°45'1020.0
2017-Jun-22 22:30N 51°03' E 001°31'813.3
2017-Jun-22 21:54N 51°07' E 001°20'0 0.0
2017-Jun-22 21:19N 51°07' E 001°20'2 5.3
2017-Jun-22 21:00N 51°07' E 001°23'816.7
2017-Jun-22 20:31N 51°03' E 001°34'917.8
2017-Jun-22 20:01N 50°58' E 001°46'3 6.5
2017-Jun-22 19:31N 50°58' E 001°51'0 0.0
2017-Jun-22 19:00N 50°58' E 001°51'612.5
2017-Jun-22 18:31N 50°58' E 001°41'917.8
2017-Jun-22 18:00N 51°01' E 001°28'8 5.1
2017-Jun-22 16:26N 51°07' E 001°20'410.1
2017-Jun-22 16:00N 51°06' E 001°27'1019.2
2017-Jun-22 15:31N 51°00' E 001°39'815.8
2017-Jun-22 15:00N 50°58' E 001°51'0 0.1
2017-Jun-22 14:30N 50°58' E 001°51'5 5.2
2017-Jun-22 13:30N 50°58' E 001°43'918.8
2017-Jun-22 13:00N 51°03' E 001°30'815.4
2017-Jun-22 12:30N 51°07' E 001°20'0 0.0
2017-Jun-22 11:52N 51°07' E 001°20'0 0.4
2017-Jun-22 11:30N 51°07' E 001°20'2 4.6
2017-Jun-22 11:00N 51°07' E 001°24'815.9
2017-Jun-22 10:30N 51°04' E 001°35'917.9
2017-Jun-22 10:00N 50°58' E 001°46'3 5.2
2017-Jun-22 09:23N 50°58' E 001°51'0 0.0
2017-Jun-22 08:53N 50°58' E 001°51'1 1.8
2017-Jun-22 08:30N 50°58' E 001°50'1019.5
2017-Jun-22 08:01N 51°00' E 001°35'1019.3
2017-Jun-22 07:31N 51°06' E 001°23'2 4.4
2017-Jun-22 07:00N 51°07' E 001°20'0 0.0
2017-Jun-22 06:30N 51°07' E 001°20'1 2.5
2017-Jun-22 06:00N 51°07' E 001°22'918.2
2017-Jun-22 05:30N 51°03' E 001°35'917.7
2017-Jun-22 05:00N 50°58' E 001°47'3 5.5
2017-Jun-22 04:30N 50°58' E 001°51'0 0.0
2017-Jun-22 04:00N 50°58' E 001°51'2 3.3
2017-Jun-22 03:31N 50°58' E 001°48'816.1
2017-Jun-22 03:00N 51°01' E 001°36'917.8
2017-Jun-22 02:31N 51°06' E 001°25'3 6.3
2017-Jun-22 02:00N 51°07' E 001°20'0 0.0
2017-Jun-22 01:30N 51°07' E 001°20'0 0.0
2017-Jun-22 01:00N 51°07' E 001°20'4 8.4
2017-Jun-22 00:30N 51°06' E 001°26'917.3
2017-Jun-22 00:00N 51°01' E 001°38'815.6
2017-Jun-21 23:30N 50°58' E 001°49'1 2.1
2017-Jun-21 23:00N 50°58' E 001°51'0 0.0
2017-Jun-21 22:30N 50°58' E 001°51'612.0
2017-Jun-21 22:00N 50°58' E 001°42'917.9
2017-Jun-21 21:30N 51°03' E 001°29'714.9
2017-Jun-21 21:00N 51°07' E 001°20'0 0.0
2017-Jun-21 20:29N 51°07' E 001°20'0 0.1
2017-Jun-21 20:00N 51°07' E 001°20'611.6
2017-Jun-21 19:31N 51°06' E 001°29'1019.1
2017-Jun-21 19:00N 51°00' E 001°41'713.0
2017-Jun-21 18:30N 50°58' E 001°51'0 0.0
2017-Jun-21 18:00N 50°58' E 001°51'2 4.9
2017-Jun-21 17:31N 50°58' E 001°47'917.0
2017-Jun-21 17:01N 51°01' E 001°34'918.6
2017-Jun-21 16:30N 51°06' E 001°22'2 3.2
2017-Jun-21 15:57N 51°07' E 001°20'0 0.0
2017-Jun-21 15:29N 51°07' E 001°20'612.0
2017-Jun-21 15:00N 51°06' E 001°29'1615.9
2017-Jun-21 14:00N 50°58' E 001°51'0 0.0
2017-Jun-21 13:30N 50°58' E 001°51'2 5.0
2017-Jun-21 13:01N 50°58' E 001°47'917.8
2017-Jun-21 12:30N 51°01' E 001°34'1019.3
2017-Jun-21 12:00N 51°07' E 001°21'1 1.2
2017-Jun-21 11:19N 51°07' E 001°20'0 0.2
2017-Jun-21 11:00N 51°07' E 001°20'714.7
2017-Jun-21 10:30N 51°05' E 001°31'918.7
2017-Jun-21 10:00N 50°59' E 001°43'510.8
2017-Jun-21 09:30N 50°58' E 001°51'0 0.0
2017-Jun-21 09:00N 50°58' E 001°51'3 6.0
2017-Jun-21 08:30N 50°58' E 001°46'1019.2
2017-Jun-21 08:00N 51°02' E 001°32'816.9
2017-Jun-21 07:31N 51°07' E 001°22'1 2.0
2017-Jun-21 07:00N 51°07' E 001°20'0 0.0
2017-Jun-21 06:31N 51°07' E 001°20'611.5
2017-Jun-21 06:00N 51°06' E 001°29'816.3
2017-Jun-21 05:30N 51°01' E 001°39'815.8
2017-Jun-21 05:01N 50°58' E 001°51'1 1.4
2017-Jun-21 04:30N 50°58' E 001°52'0 0.0
2017-Jun-21 04:01N 50°58' E 001°52'3 6.2
2017-Jun-21 03:31N 50°58' E 001°47'815.7
2017-Jun-21 03:00N 51°01' E 001°35'816.9
2017-Jun-21 02:31N 51°06' E 001°24'3 5.3
2017-Jun-21 01:56N 51°07' E 001°20'0 0.0
2017-Jun-21 01:15N 51°07' E 001°20'0 0.5
2017-Jun-21 01:00N 51°07' E 001°20'815.9
2017-Jun-21 00:31N 51°04' E 001°31'917.3
2017-Jun-21 00:01N 50°59' E 001°43'611.5
2017-Jun-20 23:30N 50°58' E 001°52'0 0.0
2017-Jun-20 23:00N 50°58' E 001°52'0 0.0
2017-Jun-20 22:31N 50°58' E 001°52'713.3
2017-Jun-20 22:01N 50°58' E 001°41'1019.4
2017-Jun-20 21:30N 51°03' E 001°28'611.5
2017-Jun-20 20:57N 51°07' E 001°20'0 0.0
2017-Jun-20 20:27N 51°07' E 001°20'0 0.0
2017-Jun-20 20:00N 51°07' E 001°20'0 0.5
2017-Jun-20 19:30N 51°07' E 001°20'0 0.9
2017-Jun-20 18:56N 51°08' E 001°20'0 0.0
2017-Jun-20 18:30N 51°08' E 001°20'0 0.0
2017-Jun-20 18:01N 51°08' E 001°20'0 0.0
2017-Jun-20 17:31N 51°08' E 001°20'0 0.0
2017-Jun-20 17:01N 51°08' E 001°20'0 0.0
2017-Jun-20 16:31N 51°08' E 001°20'0 0.0
2017-Jun-20 16:01N 51°08' E 001°20'0 0.0
2017-Jun-20 15:31N 51°08' E 001°20'0 0.0
2017-Jun-20 15:00N 51°08' E 001°20'0 0.0
2017-Jun-20 14:31N 51°08' E 001°20'0 0.0
2017-Jun-20 13:30N 51°08' E 001°20'0 0.0
2017-Jun-20 13:00N 51°08' E 001°20'0 0.0
2017-Jun-20 12:29N 51°08' E 001°20'0 0.0
2017-Jun-20 12:00N 51°08' E 001°20'0 0.7
2017-Jun-20 11:29N 51°07' E 001°20'715.1
2017-Jun-20 11:00N 51°04' E 001°31'1019.1
2017-Jun-20 10:31N 50°59' E 001°44'510.4
2017-Jun-20 10:00N 50°58' E 001°52'0 0.0
2017-Jun-20 09:31N 50°58' E 001°52'0 0.0
2017-Jun-20 09:01N 50°58' E 001°52'3 5.2
2017-Jun-20 08:30N 50°58' E 001°48'1019.4
2017-Jun-20 08:00N 51°01' E 001°33'1019.3
2017-Jun-20 07:30N 51°07' E 001°21'0 0.7
2017-Jun-20 06:51N 51°07' E 001°20'0 0.0
2017-Jun-20 06:30N 51°07' E 001°20'3 6.5
2017-Jun-20 06:00N 51°06' E 001°25'917.4
2017-Jun-20 05:30N 51°02' E 001°37'816.7
2017-Jun-20 05:00N 50°58' E 001°49'1 2.9
2017-Jun-20 04:30N 50°58' E 001°51'0 0.0
2017-Jun-20 04:00N 50°58' E 001°51'5 9.7
2017-Jun-20 03:31N 50°58' E 001°43'815.8
2017-Jun-20 03:00N 50°58' E 001°31'918.2
2017-Jun-20 02:30N 51°06' E 001°23'3 4.8
2017-Jun-20 01:59N 51°07' E 001°20'0 0.0
2017-Jun-20 01:30N 51°07' E 001°20'0 0.0
2017-Jun-20 01:00N 51°07' E 001°20'510.4
2017-Jun-20 00:30N 51°06' E 001°28'1019.4
2017-Jun-20 00:00N 51°00' E 001°40'714.0
2017-Jun-19 23:30N 50°58' E 001°51'0 0.0
2017-Jun-19 23:00N 50°58' E 001°51'1 2.3
2017-Jun-19 22:31N 50°58' E 001°49'918.7
2017-Jun-19 22:00N 50°60' E 001°35'919.0
2017-Jun-19 21:31N 51°06' E 001°24'3 4.0
2017-Jun-19 20:53N 51°07' E 001°20'0 0.0
2017-Jun-19 20:30N 51°07' E 001°20'611.8
2017-Jun-19 20:00N 51°06' E 001°29'918.5
2017-Jun-19 19:30N 51°00' E 001°40'714.0
2017-Jun-19 19:00N 50°58' E 001°51'0 0.3
2017-Jun-19 18:30N 50°58' E 001°51'0 0.9
2017-Jun-19 18:01N 50°58' E 001°50'918.1
2017-Jun-19 17:31N 51°01' E 001°37'1019.3
2017-Jun-19 17:01N 51°06' E 001°24'3 5.0
2017-Jun-19 16:28N 51°07' E 001°20'0 0.0
2017-Jun-19 15:58N 51°07' E 001°20'612.8
2017-Jun-19 15:30N 51°06' E 001°29'817.0
2017-Jun-19 15:00N 51°00' E 001°39'8 8.0
2017-Jun-19 14:00N 50°58' E 001°51'0 0.0
2017-Jun-19 13:30N 50°58' E 001°51'612.5
2017-Jun-19 13:00N 50°58' E 001°41'918.3
2017-Jun-19 12:31N 51°02' E 001°28'714.2
2017-Jun-19 12:00N 51°07' E 001°20'0 0.1
2017-Jun-19 11:08N 51°07' E 001°20'0 0.9
2017-Jun-19 11:00N 51°07' E 001°20'917.8
2017-Jun-19 10:30N 51°05' E 001°34'918.9
2017-Jun-19 10:00N 50°58' E 001°44'4 8.5
2017-Jun-19 09:30N 50°58' E 001°51'0 0.0
2017-Jun-19 09:00N 50°58' E 001°51'3 6.3
2017-Jun-19 08:30N 50°58' E 001°46'917.7
2017-Jun-19 08:00N 51°01' E 001°33'817.2
2017-Jun-19 07:30N 51°07' E 001°22'2 2.8
2017-Jun-19 06:58N 51°07' E 001°20'0 0.1
2017-Jun-19 06:21N 51°07' E 001°20'310.1
2017-Jun-19 06:00N 51°06' E 001°25'917.1
2017-Jun-19 05:30N 51°02' E 001°37'815.5
2017-Jun-19 05:00N 50°58' E 001°48'2 4.1
2017-Jun-19 04:31N 50°58' E 001°51'0 0.0
2017-Jun-19 04:01N 50°58' E 001°51'5 9.5
2017-Jun-19 03:31N 50°58' E 001°43'816.6
2017-Jun-19 03:00N 51°02' E 001°32'714.0
2017-Jun-19 02:30N 51°06' E 001°23'2 4.4
2017-Jun-19 02:00N 51°07' E 001°20'0 0.0
2017-Jun-19 01:27N 51°07' E 001°20'0 0.0
2017-Jun-19 00:59N 51°07' E 001°20'613.1
2017-Jun-19 00:30N 51°06' E 001°30'917.6
2017-Jun-19 00:01N 51°01' E 001°41'713.4
2017-Jun-18 23:30N 50°58' E 001°51'0 0.2
2017-Jun-18 23:01N 50°58' E 001°51'0 0.2
2017-Jun-18 22:31N 50°58' E 001°51'714.6
2017-Jun-18 22:00N 50°59' E 001°39'917.4
2017-Jun-18 21:30N 51°03' E 001°27'611.0
2017-Jun-18 20:56N 51°07' E 001°20'0 0.0
2017-Jun-18 20:10N 51°07' E 001°20'0 0.0
2017-Jun-18 19:57N 51°07' E 001°20'511.7
2017-Jun-18 19:30N 51°06' E 001°28'1019.1
2017-Jun-18 19:00N 51°00' E 001°40'714.2
2017-Jun-18 18:31N 50°58' E 001°51'0 0.0
2017-Jun-18 17:42N 50°58' E 001°51'211.5
2017-Jun-18 17:30N 50°58' E 001°47'1019.4
2017-Jun-18 16:59N 50°59' E 001°31'919.5
2017-Jun-18 16:30N 51°06' E 001°22'2 1.9
2017-Jun-18 15:38N 51°07' E 001°20'0 0.9
2017-Jun-18 15:30N 51°07' E 001°20'918.1
2017-Jun-18 15:01N 51°03' E 001°33'1212.4
2017-Jun-18 14:00N 50°58' E 001°51'0 0.0
2017-Jun-18 13:30N 50°58' E 001°51'4 8.0
2017-Jun-18 13:01N 50°58' E 001°45'918.3
2017-Jun-18 12:30N 51°02' E 001°32'918.0
2017-Jun-18 12:00N 51°07' E 001°20'0 0.2
2017-Jun-18 11:19N 51°07' E 001°20'311.0
2017-Jun-18 11:00N 51°07' E 001°26'1019.0
2017-Jun-18 10:30N 51°01' E 001°38'917.2
2017-Jun-18 10:00N 50°58' E 001°51'0 0.5
2017-Jun-18 09:30N 50°58' E 001°51'0 0.8
2017-Jun-18 09:01N 50°58' E 001°50'713.8
2017-Jun-18 08:30N 50°59' E 001°40'1020.1
2017-Jun-18 08:00N 51°04' E 001°26'5 7.5
2017-Jun-18 07:21N 51°07' E 001°20'0 0.0
2017-Jun-18 06:59N 51°07' E 001°20'0 0.0
2017-Jun-18 06:30N 51°07' E 001°20'1 1.7
2017-Jun-18 06:00N 51°07' E 001°21'918.6
2017-Jun-18 05:30N 51°02' E 001°34'918.0
2017-Jun-18 05:01N 50°58' E 001°46'3 6.0
2017-Jun-18 04:30N 50°58' E 001°51'0 0.0
2017-Jun-18 04:00N 50°58' E 001°51'1 1.6
2017-Jun-18 03:31N 50°58' E 001°50'918.4
2017-Jun-18 03:01N 51°01' E 001°36'1019.5
2017-Jun-18 02:30N 51°06' E 001°23'2 3.9
2017-Jun-18 01:57N 51°07' E 001°20'0 0.0
2017-Jun-18 01:25N 51°07' E 001°20'0 0.1
2017-Jun-18 01:00N 51°07' E 001°20'713.4
2017-Jun-18 00:31N 51°05' E 001°30'917.4
2017-Jun-18 00:00N 50°59' E 001°40'713.9
2017-Jun-17 23:30N 50°58' E 001°51'0 0.1
2017-Jun-17 23:00N 50°58' E 001°51'3 5.3
2017-Jun-17 22:31N 50°58' E 001°47'917.7
2017-Jun-17 22:00N 51°01' E 001°34'918.4
2017-Jun-17 21:31N 51°07' E 001°22'1 2.0
2017-Jun-17 20:50N 51°07' E 001°20'0 1.1
2017-Jun-17 20:30N 51°07' E 001°21'917.8
2017-Jun-17 20:01N 51°03' E 001°33'1019.0
2017-Jun-17 19:30N 50°58' E 001°46'3 6.8
2017-Jun-17 19:00N 50°58' E 001°51'0 0.0
2017-Jun-17 18:30N 50°58' E 001°51'714.0
2017-Jun-17 18:00N 50°59' E 001°40'918.5
2017-Jun-17 17:31N 51°04' E 001°28'6 9.1
2017-Jun-17 16:50N 51°07' E 001°20'0 0.1
2017-Jun-17 16:19N 51°07' E 001°20'310.4
2017-Jun-17 16:00N 51°07' E 001°25'917.9
2017-Jun-17 15:30N 51°02' E 001°37'817.0
2017-Jun-17 15:00N 50°58' E 001°49'1 2.2
2017-Jun-17 14:30N 50°58' E 001°51'3 2.9
2017-Jun-17 13:30N 50°58' E 001°46'917.2
2017-Jun-17 13:00N 51°01' E 001°33'918.5
2017-Jun-17 12:30N 51°07' E 001°22'1 1.9
2017-Jun-17 11:48N 51°07' E 001°20'0 0.1
2017-Jun-17 11:26N 51°07' E 001°20'512.8
2017-Jun-17 11:01N 51°06' E 001°28'714.0
2017-Jun-17 10:30N 51°01' E 001°36'918.5
2017-Jun-17 10:00N 50°58' E 001°50'0 0.9
2017-Jun-17 09:30N 50°58' E 001°51'0 0.0
2017-Jun-17 09:00N 50°58' E 001°51'611.7
2017-Jun-17 08:30N 50°58' E 001°42'1019.2
2017-Jun-17 08:00N 51°03' E 001°28'7 4.8
2017-Jun-17 06:33N 51°07' E 001°20'0 1.4
2017-Jun-17 06:30N 51°07' E 001°20'715.2
2017-Jun-17 06:00N 51°04' E 001°31'917.9
2017-Jun-17 05:30N 50°59' E 001°43'510.9
2017-Jun-17 05:00N 50°58' E 001°51'0 0.7
2017-Jun-17 04:30N 50°58' E 001°52'0 0.0
2017-Jun-17 04:00N 50°58' E 001°52'1 1.9
2017-Jun-17 03:30N 50°58' E 001°50'918.2
2017-Jun-17 03:00N 51°00' E 001°36'917.3
2017-Jun-17 02:30N 51°06' E 001°25'4 5.3
2017-Jun-17 01:48N 51°07' E 001°20'0 0.0
2017-Jun-17 01:30N 51°07' E 001°20'1 2.3
2017-Jun-17 01:00N 51°07' E 001°22'917.3
2017-Jun-17 00:31N 51°03' E 001°34'918.6
2017-Jun-17 00:00N 50°58' E 001°46'3 6.9
2017-Jun-16 23:30N 50°58' E 001°52'0 0.0
2017-Jun-16 23:00N 50°58' E 001°52'1 3.0
2017-Jun-16 22:30N 50°58' E 001°49'815.8
2017-Jun-16 22:00N 51°00' E 001°37'917.8
2017-Jun-16 21:30N 51°05' E 001°25'4 8.0
2017-Jun-16 21:00N 51°07' E 001°20'0 0.0
2017-Jun-16 20:27N 51°07' E 001°20'1 1.8
2017-Jun-16 20:00N 51°07' E 001°21'917.4
2017-Jun-16 19:30N 51°03' E 001°33'918.2
2017-Jun-16 19:01N 50°58' E 001°45'4 7.0
2017-Jun-16 18:30N 50°58' E 001°51'0 0.0
2017-Jun-16 18:01N 50°58' E 001°51'713.9
2017-Jun-16 17:30N 50°58' E 001°40'1019.2
2017-Jun-16 17:00N 51°04' E 001°27'610.1
2017-Jun-16 16:26N 51°07' E 001°20'0 0.0
2017-Jun-16 15:57N 51°07' E 001°20'1 3.0
2017-Jun-16 15:31N 51°07' E 001°22'918.5
2017-Jun-16 15:00N 51°02' E 001°35'1111.1
2017-Jun-16 14:00N 50°58' E 001°51'0 0.2
2017-Jun-16 13:30N 50°58' E 001°51'816.5
2017-Jun-16 13:00N 50°59' E 001°38'918.5
2017-Jun-16 12:30N 51°05' E 001°27'5 9.0
2017-Jun-16 11:58N 51°07' E 001°20'0 0.0
2017-Jun-16 11:28N 51°07' E 001°20'3 6.2
2017-Jun-16 11:00N 51°07' E 001°24'1019.0
2017-Jun-16 10:30N 51°01' E 001°37'918.1
2017-Jun-16 10:00N 50°58' E 001°50'0 0.8
2017-Jun-16 09:30N 50°58' E 001°51'0 0.6
2017-Jun-16 09:01N 50°58' E 001°51'816.3
2017-Jun-16 08:30N 50°59' E 001°38'1019.2
2017-Jun-16 08:01N 51°05' E 001°25'4 3.3
2017-Jun-16 06:45N 51°07' E 001°20'1 4.2
2017-Jun-16 06:30N 51°07' E 001°22'918.1
2017-Jun-16 06:01N 51°03' E 001°34'917.9
2017-Jun-16 05:31N 50°58' E 001°46'3 5.5
2017-Jun-16 04:59N 50°58' E 001°51'0 0.0
2017-Jun-16 04:30N 50°58' E 001°51'611.4
2017-Jun-16 04:00N 50°58' E 001°42'919.1
2017-Jun-16 03:30N 51°04' E 001°30'5 9.0
2017-Jun-16 03:00N 51°06' E 001°24'3 4.2
2017-Jun-16 02:25N 51°07' E 001°20'0 0.0
2017-Jun-16 01:48N 51°07' E 001°20'2 7.1
2017-Jun-16 01:31N 51°07' E 001°23'918.1
2017-Jun-16 01:01N 51°02' E 001°35'917.6
2017-Jun-16 00:31N 50°58' E 001°48'2 3.7
2017-Jun-16 00:00N 50°58' E 001°51'0 0.0
2017-Jun-15 23:31N 50°58' E 001°51'3 6.3
2017-Jun-15 23:00N 50°58' E 001°46'917.5
2017-Jun-15 22:30N 51°01' E 001°33'918.5
2017-Jun-15 22:00N 51°06' E 001°21'2 2.9
2017-Jun-15 21:29N 51°07' E 001°20'0 0.0
2017-Jun-15 20:57N 51°07' E 001°20'4 9.4
2017-Jun-15 20:31N 51°06' E 001°26'918.2
2017-Jun-15 20:01N 51°01' E 001°38'816.7
2017-Jun-15 19:30N 50°58' E 001°51'0 0.7
2017-Jun-15 19:00N 50°58' E 001°51'0 0.3
2017-Jun-15 18:30N 50°58' E 001°51'815.7
2017-Jun-15 18:00N 50°59' E 001°38'917.1
2017-Jun-15 17:30N 51°05' E 001°29'611.2
2017-Jun-15 16:56N 51°07' E 001°20'0 0.0
2017-Jun-15 16:25N 51°07' E 001°20'0 0.2
2017-Jun-15 16:00N 51°07' E 001°20'714.9
2017-Jun-15 15:30N 51°04' E 001°31'917.3
2017-Jun-15 15:00N 50°59' E 001°42'6 5.4
2017-Jun-15 13:58N 50°58' E 001°51'1 1.5
2017-Jun-15 13:30N 50°58' E 001°50'919.0
2017-Jun-15 13:00N 51°00' E 001°35'1019.0
2017-Jun-15 12:30N 51°06' E 001°23'2 4.6
2017-Jun-15 12:00N 51°07' E 001°20'0 0.0
2017-Jun-15 11:30N 51°07' E 001°20'1 2.5
2017-Jun-15 11:00N 51°07' E 001°22'1019.1
2017-Jun-15 10:30N 51°02' E 001°35'918.5
2017-Jun-15 10:00N 50°58' E 001°48'2 3.4
2017-Jun-15 09:30N 50°58' E 001°51'0 0.0
2017-Jun-15 09:00N 50°58' E 001°51'3 6.8
2017-Jun-15 08:30N 50°58' E 001°46'918.3
2017-Jun-15 08:00N 51°02' E 001°33'914.0
2017-Jun-15 07:20N 51°07' E 001°20'0 0.0
2017-Jun-15 07:01N 51°07' E 001°20'0 0.0
2017-Jun-15 06:23N 51°07' E 001°20'4 9.7
2017-Jun-15 06:01N 51°06' E 001°26'917.1
2017-Jun-15 05:30N 51°02' E 001°37'815.7
2017-Jun-15 05:00N 50°58' E 001°48'2 3.3
2017-Jun-15 04:30N 50°58' E 001°51'0 0.0
2017-Jun-15 04:00N 50°58' E 001°51'5 9.3
2017-Jun-15 03:31N 50°58' E 001°44'917.9
2017-Jun-15 03:00N 51°01' E 001°30'816.6
2017-Jun-15 02:30N 51°07' E 001°21'1 1.3
2017-Jun-15 01:58N 51°07' E 001°20'0 0.0
2017-Jun-15 01:29N 51°07' E 001°20'612.4
2017-Jun-15 01:00N 51°05' E 001°29'1019.0
2017-Jun-15 00:30N 50°60' E 001°41'612.6
2017-Jun-15 00:00N 50°58' E 001°51'0 0.0
2017-Jun-14 23:30N 50°58' E 001°51'1 1.3
2017-Jun-14 23:01N 50°58' E 001°50'816.5
2017-Jun-14 22:30N 51°00' E 001°37'918.1
2017-Jun-14 22:00N 51°05' E 001°25'4 7.7
2017-Jun-14 21:30N 51°07' E 001°20'0 0.0
2017-Jun-14 20:50N 51°07' E 001°20'0 0.7
2017-Jun-14 20:30N 51°07' E 001°20'612.8
2017-Jun-14 20:00N 51°07' E 001°30'918.2
2017-Jun-14 19:30N 51°00' E 001°40'714.1
2017-Jun-14 19:01N 50°58' E 001°51'0 0.0
2017-Jun-14 18:30N 50°58' E 001°51'2 3.0
2017-Jun-14 18:00N 50°58' E 001°49'917.7
2017-Jun-14 17:30N 50°60' E 001°35'918.9
2017-Jun-14 17:00N 51°06' E 001°24'3 3.3
2017-Jun-14 16:15N 51°07' E 001°20'0 0.0
2017-Jun-14 15:47N 51°07' E 001°20'2 7.5
2017-Jun-14 15:30N 51°07' E 001°23'918.1
2017-Jun-14 15:01N 51°02' E 001°36'1110.6
2017-Jun-14 14:00N 50°58' E 001°51'0 0.0
2017-Jun-14 13:30N 50°58' E 001°51'5 9.4
2017-Jun-14 13:01N 50°58' E 001°44'1019.0
2017-Jun-14 12:30N 51°03' E 001°30'814.3
2017-Jun-14 11:57N 51°07' E 001°20'0 0.0
2017-Jun-14 11:10N 51°07' E 001°20'0 0.6
2017-Jun-14 10:59N 51°07' E 001°20'816.7
2017-Jun-14 10:30N 51°04' E 001°32'1019.2
2017-Jun-14 10:00N 50°58' E 001°44'4 9.0
2017-Jun-14 09:30N 50°58' E 001°51'0 0.0
2017-Jun-14 09:00N 50°58' E 001°51'4 7.4
2017-Jun-14 08:30N 50°58' E 001°45'817.0
2017-Jun-14 08:00N 51°01' E 001°33'918.0
2017-Jun-14 07:30N 51°07' E 001°22'1 2.4
2017-Jun-14 07:00N 51°07' E 001°20'0 0.0
2017-Jun-14 06:29N 51°07' E 001°20'4 8.8
2017-Jun-14 06:00N 51°07' E 001°27'816.2
2017-Jun-14 05:30N 51°03' E 001°38'816.0
2017-Jun-14 05:00N 50°58' E 001°48'2 3.3
2017-Jun-14 04:30N 50°58' E 001°51'0 0.0
2017-Jun-14 04:00N 50°58' E 001°51'1 2.2
2017-Jun-14 03:30N 50°58' E 001°49'918.1
2017-Jun-14 03:01N 51°01' E 001°35'917.4
2017-Jun-14 02:31N 51°06' E 001°24'3 3.2
2017-Jun-14 01:32N 51°07' E 001°20'0 0.0
2017-Jun-14 01:27N 51°07' E 001°20'3 5.8
2017-Jun-14 01:01N 51°07' E 001°24'918.4
2017-Jun-14 00:30N 51°03' E 001°37'816.8
2017-Jun-14 00:00N 50°58' E 001°48'2 3.2
2017-Jun-13 23:30N 50°58' E 001°51'0 0.0
2017-Jun-13 23:00N 50°58' E 001°51'611.7
2017-Jun-13 22:31N 50°58' E 001°42'816.8
2017-Jun-13 22:00N 51°02' E 001°30'816.2
2017-Jun-13 21:29N 51°07' E 001°20'0 0.0
2017-Jun-13 20:55N 51°07' E 001°20'0 0.1
2017-Jun-13 20:30N 51°07' E 001°20'714.5
2017-Jun-13 20:00N 51°07' E 001°31'918.0
2017-Jun-13 19:30N 51°00' E 001°41'612.8
2017-Jun-13 19:00N 50°58' E 001°51'0 0.1
2017-Jun-13 18:30N 50°58' E 001°51'1 2.0
2017-Jun-13 18:00N 50°58' E 001°50'917.7
2017-Jun-13 17:31N 50°60' E 001°36'918.8
2017-Jun-13 17:00N 51°06' E 001°25'  

Dump ship's entire track history